sensor_id;sensor_type;location;lat;lon;timestamp;pressure;altitude;pressure_sealevel;temperature;humidity
75039;BME280;63609;49.992;14.512;2024-01-16T00:02:20;96735.88;;;-2.99;65.52
75039;BME280;63609;49.992;14.512;2024-01-16T00:04:47;96743.25;;;-2.78;64.84
75039;BME280;63609;49.992;14.512;2024-01-16T00:07:14;96744.22;;;-3.06;64.85
75039;BME280;63609;49.992;14.512;2024-01-16T00:09:41;96740.59;;;-2.91;64.87
75039;BME280;63609;49.992;14.512;2024-01-16T00:12:08;96741.94;;;-2.98;65.25
75039;BME280;63609;49.992;14.512;2024-01-16T00:14:38;96737.91;;;-2.77;64.31
75039;BME280;63609;49.992;14.512;2024-01-16T00:17:05;96748.78;;;-2.70;63.53
75039;BME280;63609;49.992;14.512;2024-01-16T00:19:32;96757.59;;;-2.98;64.58
75039;BME280;63609;49.992;14.512;2024-01-16T00:21:59;96762.59;;;-2.55;63.31
75039;BME280;63609;49.992;14.512;2024-01-16T00:24:29;96762.31;;;-2.90;63.24
75039;BME280;63609;49.992;14.512;2024-01-16T00:26:55;96763.13;;;-3.03;63.01
75039;BME280;63609;49.992;14.512;2024-01-16T00:29:22;96766.50;;;-2.88;62.43
75039;BME280;63609;49.992;14.512;2024-01-16T00:31:50;96774.81;;;-3.08;63.24
75039;BME280;63609;49.992;14.512;2024-01-16T00:34:17;96777.84;;;-3.02;62.77
75039;BME280;63609;49.992;14.512;2024-01-16T00:36:44;96774.91;;;-3.10;62.20
75039;BME280;63609;49.992;14.512;2024-01-16T00:39:10;96769.81;;;-2.99;62.55
75039;BME280;63609;49.992;14.512;2024-01-16T00:41:37;96771.47;;;-2.71;61.53
75039;BME280;63609;49.992;14.512;2024-01-16T00:44:04;96785.66;;;-2.75;61.28
75039;BME280;63609;49.992;14.512;2024-01-16T00:46:31;96779.63;;;-2.63;60.88
75039;BME280;63609;49.992;14.512;2024-01-16T00:48:58;96788.66;;;-2.54;60.36
75039;BME280;63609;49.992;14.512;2024-01-16T00:51:25;96780.03;;;-2.69;60.45
75039;BME280;63609;49.992;14.512;2024-01-16T00:53:52;96781.00;;;-2.97;60.65
75039;BME280;63609;49.992;14.512;2024-01-16T00:56:19;96770.19;;;-2.78;59.91
75039;BME280;63609;49.992;14.512;2024-01-16T00:58:46;96772.28;;;-2.70;59.35
75039;BME280;63609;49.992;14.512;2024-01-16T01:03:31;96768.53;;;-3.33;61.03
75039;BME280;63609;49.992;14.512;2024-01-16T01:06:00;96778.47;;;-2.98;59.87
75039;BME280;63609;49.992;14.512;2024-01-16T01:08:27;96794.00;;;-3.09;60.59
75039;BME280;63609;49.992;14.512;2024-01-16T01:10:54;96795.56;;;-3.34;60.71
75039;BME280;63609;49.992;14.512;2024-01-16T01:13:22;96795.66;;;-3.35;60.97
75039;BME280;63609;49.992;14.512;2024-01-16T01:15:49;96807.88;;;-3.36;61.63
75039;BME280;63609;49.992;14.512;2024-01-16T01:18:16;96803.38;;;-3.19;60.92
75039;BME280;63609;49.992;14.512;2024-01-16T01:20:43;96819.03;;;-3.19;61.37
75039;BME280;63609;49.992;14.512;2024-01-16T01:23:10;96812.97;;;-3.20;61.19
75039;BME280;63609;49.992;14.512;2024-01-16T01:25:37;96820.81;;;-3.20;61.51
75039;BME280;63609;49.992;14.512;2024-01-16T01:28:05;96810.38;;;-3.20;61.67
75039;BME280;63609;49.992;14.512;2024-01-16T01:30:32;96809.69;;;-3.50;62.25
75039;BME280;63609;49.992;14.512;2024-01-16T01:32:59;96819.53;;;-3.41;62.59
75039;BME280;63609;49.992;14.512;2024-01-16T01:35:26;96815.75;;;-3.23;61.53
75039;BME280;63609;49.992;14.512;2024-01-16T01:37:54;96820.59;;;-3.17;61.02
75039;BME280;63609;49.992;14.512;2024-01-16T01:40:21;96828.16;;;-3.27;61.73
75039;BME280;63609;49.992;14.512;2024-01-16T01:42:48;96828.81;;;-3.23;61.94
75039;BME280;63609;49.992;14.512;2024-01-16T01:45:14;96841.28;;;-3.14;61.97
75039;BME280;63609;49.992;14.512;2024-01-16T01:47:42;96847.06;;;-3.09;61.69
75039;BME280;63609;49.992;14.512;2024-01-16T01:50:10;96854.84;;;-2.95;61.69
75039;BME280;63609;49.992;14.512;2024-01-16T01:52:38;96851.25;;;-3.20;62.08
75039;BME280;63609;49.992;14.512;2024-01-16T01:55:10;96848.56;;;-3.19;62.04
75039;BME280;63609;49.992;14.512;2024-01-16T01:57:38;96847.81;;;-3.21;61.99
75039;BME280;63609;49.992;14.512;2024-01-16T02:00:06;96847.91;;;-3.08;61.98
75039;BME280;63609;49.992;14.512;2024-01-16T02:02:41;96854.16;;;-2.84;61.04
75039;BME280;63609;49.992;14.512;2024-01-16T02:05:09;96859.38;;;-3.25;62.27
75039;BME280;63609;49.992;14.512;2024-01-16T02:07:37;96858.63;;;-3.27;61.00
75039;BME280;63609;49.992;14.512;2024-01-16T02:10:05;96865.47;;;-2.98;61.18
75039;BME280;63609;49.992;14.512;2024-01-16T02:12:34;96860.59;;;-3.16;61.12
75039;BME280;63609;49.992;14.512;2024-01-16T02:15:01;96868.97;;;-3.11;61.24
75039;BME280;63609;49.992;14.512;2024-01-16T02:17:29;96865.78;;;-3.02;60.72
75039;BME280;63609;49.992;14.512;2024-01-16T02:19:57;96877.31;;;-2.92;60.62
75039;BME280;63609;49.992;14.512;2024-01-16T02:22:28;96881.38;;;-2.88;60.34
75039;BME280;63609;49.992;14.512;2024-01-16T02:24:59;96894.19;;;-2.98;60.40
75039;BME280;63609;49.992;14.512;2024-01-16T02:27:26;96893.59;;;-2.88;60.50
75039;BME280;63609;49.992;14.512;2024-01-16T02:29:53;96897.38;;;-2.66;60.33
75039;BME280;63609;49.992;14.512;2024-01-16T02:32:20;96895.97;;;-2.98;60.58
75039;BME280;63609;49.992;14.512;2024-01-16T02:34:47;96899.31;;;-2.96;60.29
75039;BME280;63609;49.992;14.512;2024-01-16T02:37:14;96907.16;;;-2.82;60.32
75039;BME280;63609;49.992;14.512;2024-01-16T02:39:40;96902.84;;;-2.83;60.48
75039;BME280;63609;49.992;14.512;2024-01-16T02:42:07;96907.69;;;-2.91;61.18
75039;BME280;63609;49.992;14.512;2024-01-16T02:44:34;96898.22;;;-2.65;60.22
75039;BME280;63609;49.992;14.512;2024-01-16T02:47:01;96895.22;;;-2.86;60.51
75039;BME280;63609;49.992;14.512;2024-01-16T02:49:28;96899.41;;;-2.98;61.15
75039;BME280;63609;49.992;14.512;2024-01-16T02:51:55;96900.44;;;-2.86;60.85
75039;BME280;63609;49.992;14.512;2024-01-16T02:54:22;96902.28;;;-2.88;61.32
75039;BME280;63609;49.992;14.512;2024-01-16T02:56:49;96914.28;;;-2.71;60.61
75039;BME280;63609;49.992;14.512;2024-01-16T02:59:16;96900.53;;;-2.87;60.88
75039;BME280;63609;49.992;14.512;2024-01-16T03:01:43;96908.13;;;-2.70;60.61
75039;BME280;63609;49.992;14.512;2024-01-16T03:04:10;96904.22;;;-2.77;60.40
75039;BME280;63609;49.992;14.512;2024-01-16T03:06:38;96914.81;;;-2.66;60.50
75039;BME280;63609;49.992;14.512;2024-01-16T03:09:06;96915.88;;;-3.10;61.59
75039;BME280;63609;49.992;14.512;2024-01-16T03:11:33;96906.50;;;-2.85;60.49
75039;BME280;63609;49.992;14.512;2024-01-16T03:14:00;96904.78;;;-3.13;61.23
75039;BME280;63609;49.992;14.512;2024-01-16T03:16:28;96910.69;;;-2.83;60.11
75039;BME280;63609;49.992;14.512;2024-01-16T03:18:55;96914.69;;;-2.91;60.92
75039;BME280;63609;49.992;14.512;2024-01-16T03:21:22;96904.25;;;-2.91;60.90
75039;BME280;63609;49.992;14.512;2024-01-16T03:23:49;96930.59;;;-3.09;61.52
75039;BME280;63609;49.992;14.512;2024-01-16T03:26:16;96928.22;;;-2.85;60.76
75039;BME280;63609;49.992;14.512;2024-01-16T03:28:44;96936.63;;;-2.94;61.32
75039;BME280;63609;49.992;14.512;2024-01-16T03:31:14;96933.41;;;-2.71;61.23
75039;BME280;63609;49.992;14.512;2024-01-16T03:33:41;96951.00;;;-2.87;62.04
75039;BME280;63609;49.992;14.512;2024-01-16T03:36:10;96952.47;;;-2.83;61.37
75039;BME280;63609;49.992;14.512;2024-01-16T03:38:40;96942.88;;;-2.97;61.84
75039;BME280;63609;49.992;14.512;2024-01-16T03:41:07;96955.72;;;-2.94;62.47
75039;BME280;63609;49.992;14.512;2024-01-16T03:43:34;96951.16;;;-2.90;62.05
75039;BME280;63609;49.992;14.512;2024-01-16T03:46:01;96955.03;;;-2.69;61.40
75039;BME280;63609;49.992;14.512;2024-01-16T03:48:28;96958.44;;;-2.95;62.23
75039;BME280;63609;49.992;14.512;2024-01-16T03:50:56;96953.31;;;-2.97;63.23
75039;BME280;63609;49.992;14.512;2024-01-16T03:53:24;96964.16;;;-3.03;63.20
75039;BME280;63609;49.992;14.512;2024-01-16T03:55:51;96958.84;;;-3.15;63.14
75039;BME280;63609;49.992;14.512;2024-01-16T03:58:18;96959.03;;;-3.04;63.34
75039;BME280;63609;49.992;14.512;2024-01-16T04:00:45;96964.53;;;-3.37;63.82
75039;BME280;63609;49.992;14.512;2024-01-16T04:03:12;96974.22;;;-3.39;64.79
75039;BME280;63609;49.992;14.512;2024-01-16T04:05:40;96971.97;;;-3.03;63.04
75039;BME280;63609;49.992;14.512;2024-01-16T04:08:07;96978.22;;;-3.05;63.93
75039;BME280;63609;49.992;14.512;2024-01-16T04:10:34;96974.78;;;-3.06;63.38
75039;BME280;63609;49.992;14.512;2024-01-16T04:13:02;96987.84;;;-3.20;64.34
75039;BME280;63609;49.992;14.512;2024-01-16T04:15:29;96994.91;;;-3.22;64.29
75039;BME280;63609;49.992;14.512;2024-01-16T04:17:56;96991.94;;;-3.02;63.46
75039;BME280;63609;49.992;14.512;2024-01-16T04:20:23;96996.97;;;-3.13;64.02
75039;BME280;63609;49.992;14.512;2024-01-16T04:22:50;97000.13;;;-2.79;63.50
75039;BME280;63609;49.992;14.512;2024-01-16T04:25:16;97004.63;;;-3.10;64.54
75039;BME280;63609;49.992;14.512;2024-01-16T04:27:43;97006.75;;;-3.16;64.65
75039;BME280;63609;49.992;14.512;2024-01-16T04:30:11;97006.19;;;-2.93;64.51
75039;BME280;63609;49.992;14.512;2024-01-16T04:32:38;97005.16;;;-2.76;63.63
75039;BME280;63609;49.992;14.512;2024-01-16T04:35:06;97010.56;;;-2.79;64.01
75039;BME280;63609;49.992;14.512;2024-01-16T04:37:33;97007.13;;;-2.94;64.14
75039;BME280;63609;49.992;14.512;2024-01-16T04:40:00;96993.63;;;-2.86;63.72
75039;BME280;63609;49.992;14.512;2024-01-16T04:42:27;97009.28;;;-3.15;64.25
75039;BME280;63609;49.992;14.512;2024-01-16T04:44:54;97015.97;;;-2.97;64.31
75039;BME280;63609;49.992;14.512;2024-01-16T04:47:21;97019.06;;;-3.18;64.71
75039;BME280;63609;49.992;14.512;2024-01-16T04:49:48;97018.50;;;-2.95;64.74
75039;BME280;63609;49.992;14.512;2024-01-16T04:52:14;97003.66;;;-2.95;63.80
75039;BME280;63609;49.992;14.512;2024-01-16T04:54:42;97019.25;;;-3.07;64.66
75039;BME280;63609;49.992;14.512;2024-01-16T04:57:09;97025.97;;;-3.03;64.25
75039;BME280;63609;49.992;14.512;2024-01-16T04:59:36;97022.50;;;-3.04;64.44
75039;BME280;63609;49.992;14.512;2024-01-16T05:02:02;97032.31;;;-2.79;64.21
75039;BME280;63609;49.992;14.512;2024-01-16T05:04:29;97036.97;;;-3.12;63.87
75039;BME280;63609;49.992;14.512;2024-01-16T05:06:56;97042.41;;;-2.87;63.77
75039;BME280;63609;49.992;14.512;2024-01-16T05:09:23;97053.94;;;-3.05;64.07
75039;BME280;63609;49.992;14.512;2024-01-16T05:11:50;97054.59;;;-3.02;64.11
75039;BME280;63609;49.992;14.512;2024-01-16T05:14:17;97051.88;;;-3.00;63.94
75039;BME280;63609;49.992;14.512;2024-01-16T05:16:45;97052.19;;;-2.76;63.83
75039;BME280;63609;49.992;14.512;2024-01-16T05:19:11;97057.75;;;-2.97;63.85
75039;BME280;63609;49.992;14.512;2024-01-16T05:21:40;97043.03;;;-2.69;63.21
75039;BME280;63609;49.992;14.512;2024-01-16T05:24:08;97046.94;;;-2.76;63.56
75039;BME280;63609;49.992;14.512;2024-01-16T05:26:35;97054.59;;;-2.73;62.96
75039;BME280;63609;49.992;14.512;2024-01-16T05:29:02;97066.00;;;-3.33;63.90
75039;BME280;63609;49.992;14.512;2024-01-16T05:31:28;97057.97;;;-2.85;63.09
75039;BME280;63609;49.992;14.512;2024-01-16T05:33:55;97062.69;;;-2.64;63.16
75039;BME280;63609;49.992;14.512;2024-01-16T05:36:22;97065.88;;;-2.58;62.75
75039;BME280;63609;49.992;14.512;2024-01-16T05:38:49;97062.16;;;-2.83;63.47
75039;BME280;63609;49.992;14.512;2024-01-16T05:41:17;97074.16;;;-2.95;63.45
75039;BME280;63609;49.992;14.512;2024-01-16T05:43:44;97068.66;;;-2.90;63.36
75039;BME280;63609;49.992;14.512;2024-01-16T05:46:10;97076.97;;;-2.98;64.04
75039;BME280;63609;49.992;14.512;2024-01-16T05:48:38;97078.69;;;-2.82;63.67
75039;BME280;63609;49.992;14.512;2024-01-16T05:51:05;97071.66;;;-2.68;62.95
75039;BME280;63609;49.992;14.512;2024-01-16T05:53:31;97081.91;;;-2.93;63.58
75039;BME280;63609;49.992;14.512;2024-01-16T05:55:58;97078.56;;;-2.95;62.99
75039;BME280;63609;49.992;14.512;2024-01-16T05:58:26;97065.34;;;-2.78;62.45
75039;BME280;63609;49.992;14.512;2024-01-16T06:00:53;97085.38;;;-2.92;62.71
75039;BME280;63609;49.992;14.512;2024-01-16T06:03:20;97086.94;;;-3.04;62.93
75039;BME280;63609;49.992;14.512;2024-01-16T06:05:48;97086.31;;;-2.79;62.43
75039;BME280;63609;49.992;14.512;2024-01-16T06:08:15;97098.50;;;-2.94;62.54
75039;BME280;63609;49.992;14.512;2024-01-16T06:10:45;97085.75;;;-2.56;61.96
75039;BME280;63609;49.992;14.512;2024-01-16T06:13:12;97087.44;;;-2.69;62.48
75039;BME280;63609;49.992;14.512;2024-01-16T06:15:39;97085.25;;;-3.05;63.25
75039;BME280;63609;49.992;14.512;2024-01-16T06:18:06;97089.78;;;-2.79;62.62
75039;BME280;63609;49.992;14.512;2024-01-16T06:20:34;97095.94;;;-2.80;62.55
75039;BME280;63609;49.992;14.512;2024-01-16T06:23:01;97091.41;;;-2.92;62.12
75039;BME280;63609;49.992;14.512;2024-01-16T06:25:28;97094.81;;;-2.76;62.12
75039;BME280;63609;49.992;14.512;2024-01-16T06:27:54;97098.63;;;-2.81;61.90
75039;BME280;63609;49.992;14.512;2024-01-16T06:30:22;97087.50;;;-2.99;62.08
75039;BME280;63609;49.992;14.512;2024-01-16T06:32:52;97103.84;;;-3.26;62.67
75039;BME280;63609;49.992;14.512;2024-01-16T06:35:19;97111.56;;;-3.08;63.07
75039;BME280;63609;49.992;14.512;2024-01-16T06:37:46;97114.63;;;-3.16;63.10
75039;BME280;63609;49.992;14.512;2024-01-16T06:40:13;97123.81;;;-3.25;63.92
75039;BME280;63609;49.992;14.512;2024-01-16T06:42:42;97115.19;;;-3.41;63.57
75039;BME280;63609;49.992;14.512;2024-01-16T06:45:09;97122.94;;;-3.09;63.06
75039;BME280;63609;49.992;14.512;2024-01-16T06:47:37;97119.63;;;-3.27;63.52
75039;BME280;63609;49.992;14.512;2024-01-16T06:50:05;97131.25;;;-3.33;62.94
75039;BME280;63609;49.992;14.512;2024-01-16T06:52:32;97125.19;;;-3.33;63.10
75039;BME280;63609;49.992;14.512;2024-01-16T06:55:05;97127.06;;;-3.21;62.46
75039;BME280;63609;49.992;14.512;2024-01-16T06:57:32;97135.53;;;-3.32;63.12
75039;BME280;63609;49.992;14.512;2024-01-16T07:00:05;97140.09;;;-3.05;62.69
75039;BME280;63609;49.992;14.512;2024-01-16T07:02:34;97156.16;;;-3.27;63.15
75039;BME280;63609;49.992;14.512;2024-01-16T07:05:02;97157.88;;;-3.12;63.21
75039;BME280;63609;49.992;14.512;2024-01-16T07:07:30;97149.25;;;-2.98;63.38
75039;BME280;63609;49.992;14.512;2024-01-16T07:09:57;97157.13;;;-3.14;62.88
75039;BME280;63609;49.992;14.512;2024-01-16T07:12:24;97154.63;;;-3.15;62.63
75039;BME280;63609;49.992;14.512;2024-01-16T07:14:51;97160.63;;;-3.29;63.02
75039;BME280;63609;49.992;14.512;2024-01-16T07:17:27;97169.19;;;-2.97;61.58
75039;BME280;63609;49.992;14.512;2024-01-16T07:20:08;97163.44;;;-3.48;63.40
75039;BME280;63609;49.992;14.512;2024-01-16T07:22:39;97166.94;;;-3.03;61.45
75039;BME280;63609;49.992;14.512;2024-01-16T07:25:07;97158.94;;;-3.30;62.30
75039;BME280;63609;49.992;14.512;2024-01-16T07:27:34;97164.81;;;-3.27;62.15
75039;BME280;63609;49.992;14.512;2024-01-16T07:30:06;97167.44;;;-3.27;61.19
75039;BME280;63609;49.992;14.512;2024-01-16T07:32:33;97174.25;;;-3.24;61.45
75039;BME280;63609;49.992;14.512;2024-01-16T07:35:03;97175.78;;;-3.20;60.69
75039;BME280;63609;49.992;14.512;2024-01-16T07:37:30;97181.56;;;-3.15;61.10
75039;BME280;63609;49.992;14.512;2024-01-16T07:39:57;97181.13;;;-3.23;61.22
75039;BME280;63609;49.992;14.512;2024-01-16T07:42:24;97193.59;;;-3.12;61.17
75039;BME280;63609;49.992;14.512;2024-01-16T07:44:52;97196.81;;;-3.23;61.23
75039;BME280;63609;49.992;14.512;2024-01-16T07:47:18;97205.16;;;-3.32;61.43
75039;BME280;63609;49.992;14.512;2024-01-16T07:49:45;97195.03;;;-3.22;60.70
75039;BME280;63609;49.992;14.512;2024-01-16T07:52:12;97199.75;;;-2.83;59.85
75039;BME280;63609;49.992;14.512;2024-01-16T07:54:39;97206.94;;;-2.87;60.20
75039;BME280;63609;49.992;14.512;2024-01-16T07:57:06;97218.72;;;-2.96;60.08
75039;BME280;63609;49.992;14.512;2024-01-16T07:59:33;97218.44;;;-2.61;58.88
75039;BME280;63609;49.992;14.512;2024-01-16T08:02:21;97214.19;;;-2.48;58.75
75039;BME280;63609;49.992;14.512;2024-01-16T08:04:50;97209.00;;;-3.08;60.08
75039;BME280;63609;49.992;14.512;2024-01-16T08:07:19;97218.06;;;-2.99;60.18
75039;BME280;63609;49.992;14.512;2024-01-16T08:09:46;97219.75;;;-2.98;59.33
75039;BME280;63609;49.992;14.512;2024-01-16T08:12:13;97221.16;;;-2.92;59.19
75039;BME280;63609;49.992;14.512;2024-01-16T08:14:44;97230.66;;;-2.91;59.15
75039;BME280;63609;49.992;14.512;2024-01-16T08:17:11;97234.44;;;-2.81;58.70
75039;BME280;63609;49.992;14.512;2024-01-16T08:19:38;97236.38;;;-2.55;58.20
75039;BME280;63609;49.992;14.512;2024-01-16T08:22:05;97230.00;;;-2.65;57.74
75039;BME280;63609;49.992;14.512;2024-01-16T08:24:38;97238.63;;;-2.35;58.24
75039;BME280;63609;49.992;14.512;2024-01-16T08:27:05;97238.75;;;-2.08;57.20
75039;BME280;63609;49.992;14.512;2024-01-16T08:29:33;97240.59;;;-1.95;56.90
75039;BME280;63609;49.992;14.512;2024-01-16T08:31:59;97250.78;;;-2.34;57.48
75039;BME280;63609;49.992;14.512;2024-01-16T08:34:26;97251.06;;;-2.10;56.97
75039;BME280;63609;49.992;14.512;2024-01-16T08:36:53;97253.69;;;-2.10;56.52
75039;BME280;63609;49.992;14.512;2024-01-16T08:39:23;97250.41;;;-2.42;57.76
75039;BME280;63609;49.992;14.512;2024-01-16T08:41:51;97250.88;;;-2.35;58.04
75039;BME280;63609;49.992;14.512;2024-01-16T08:44:18;97253.84;;;-2.27;57.48
75039;BME280;63609;49.992;14.512;2024-01-16T08:46:45;97262.94;;;-1.90;57.64
75039;BME280;63609;49.992;14.512;2024-01-16T08:49:12;97253.97;;;-2.00;57.40
75039;BME280;63609;49.992;14.512;2024-01-16T08:51:46;97260.69;;;-1.82;57.11
75039;BME280;63609;49.992;14.512;2024-01-16T08:54:13;97262.38;;;-1.95;56.61
75039;BME280;63609;49.992;14.512;2024-01-16T08:56:40;97245.84;;;-1.95;56.16
75039;BME280;63609;49.992;14.512;2024-01-16T08:59:07;97266.22;;;-2.15;56.27
75039;BME280;63609;49.992;14.512;2024-01-16T09:01:36;97257.72;;;-2.18;56.15
75039;BME280;63609;49.992;14.512;2024-01-16T09:04:03;97275.34;;;-2.22;56.46
75039;BME280;63609;49.992;14.512;2024-01-16T09:06:31;97260.69;;;-1.67;55.36
75039;BME280;63609;49.992;14.512;2024-01-16T09:08:58;97264.16;;;-1.81;55.70
75039;BME280;63609;49.992;14.512;2024-01-16T09:11:25;97269.78;;;-1.87;56.24
75039;BME280;63609;49.992;14.512;2024-01-16T09:13:52;97273.56;;;-1.93;55.97
75039;BME280;63609;49.992;14.512;2024-01-16T09:16:19;97274.13;;;-2.02;56.88
75039;BME280;63609;49.992;14.512;2024-01-16T09:18:46;97278.06;;;-2.09;56.95
75039;BME280;63609;49.992;14.512;2024-01-16T09:21:14;97272.09;;;-2.11;57.11
75039;BME280;63609;49.992;14.512;2024-01-16T09:23:41;97278.34;;;-2.14;57.43
75039;BME280;63609;49.992;14.512;2024-01-16T09:26:08;97278.63;;;-2.04;56.47
75039;BME280;63609;49.992;14.512;2024-01-16T09:28:34;97280.88;;;-2.56;58.58
75039;BME280;63609;49.992;14.512;2024-01-16T09:31:01;97284.78;;;-2.19;58.02
75039;BME280;63609;49.992;14.512;2024-01-16T09:33:29;97273.50;;;-2.06;56.96
75039;BME280;63609;49.992;14.512;2024-01-16T09:35:56;97279.31;;;-1.86;56.60
75039;BME280;63609;49.992;14.512;2024-01-16T09:38:23;97273.22;;;-2.01;57.03
75039;BME280;63609;49.992;14.512;2024-01-16T09:40:50;97278.03;;;-2.23;57.42
75039;BME280;63609;49.992;14.512;2024-01-16T09:43:19;97282.72;;;-2.14;57.86
75039;BME280;63609;49.992;14.512;2024-01-16T09:45:49;97285.72;;;-1.92;57.99
75039;BME280;63609;49.992;14.512;2024-01-16T09:48:15;97282.09;;;-1.75;56.74
75039;BME280;63609;49.992;14.512;2024-01-16T09:50:43;97279.53;;;-2.34;58.21
75039;BME280;63609;49.992;14.512;2024-01-16T09:53:10;97286.94;;;-2.12;57.89
75039;BME280;63609;49.992;14.512;2024-01-16T09:55:38;97284.31;;;-1.69;56.28
75039;BME280;63609;49.992;14.512;2024-01-16T09:58:09;97288.63;;;-1.96;57.53
75039;BME280;63609;49.992;14.512;2024-01-16T10:00:43;97288.13;;;-1.60;56.82
75039;BME280;63609;49.992;14.512;2024-01-16T10:03:12;97282.75;;;-1.86;56.32
75039;BME280;63609;49.992;14.512;2024-01-16T10:05:41;97271.25;;;-1.83;56.08
75039;BME280;63609;49.992;14.512;2024-01-16T10:08:09;97280.97;;;-1.85;56.47
75039;BME280;63609;49.992;14.512;2024-01-16T10:10:36;97277.75;;;-1.48;55.70
75039;BME280;63609;49.992;14.512;2024-01-16T10:13:15;97276.47;;;-1.69;55.52
75039;BME280;63609;49.992;14.512;2024-01-16T10:15:42;97284.06;;;-1.79;56.14
75039;BME280;63609;49.992;14.512;2024-01-16T10:18:29;97278.72;;;-1.77;55.52
75039;BME280;63609;49.992;14.512;2024-01-16T10:21:04;97282.94;;;-1.89;55.16
75039;BME280;63609;49.992;14.512;2024-01-16T10:23:32;97277.44;;;-1.84;55.68
75039;BME280;63609;49.992;14.512;2024-01-16T10:28:35;97284.47;;;-1.44;54.63
75039;BME280;63609;49.992;14.512;2024-01-16T10:31:04;97290.50;;;-1.56;54.12
75039;BME280;63609;49.992;14.512;2024-01-16T10:33:32;97287.59;;;-1.65;55.04
75039;BME280;63609;49.992;14.512;2024-01-16T10:36:15;97284.44;;;-1.15;53.80
75039;BME280;63609;49.992;14.512;2024-01-16T10:38:47;97283.75;;;-1.60;53.85
75039;BME280;63609;49.992;14.512;2024-01-16T10:41:15;97284.88;;;-1.64;53.40
75039;BME280;63609;49.992;14.512;2024-01-16T10:43:44;97284.69;;;-1.47;52.63
75039;BME280;63609;49.992;14.512;2024-01-16T10:46:17;97278.94;;;-1.25;51.35
75039;BME280;63609;49.992;14.512;2024-01-16T10:49:00;97286.41;;;-1.33;51.76
75039;BME280;63609;49.992;14.512;2024-01-16T10:51:28;97276.59;;;-1.29;51.90
75039;BME280;63609;49.992;14.512;2024-01-16T10:53:58;97278.50;;;-1.04;50.85
75039;BME280;63609;49.992;14.512;2024-01-16T10:56:29;97278.38;;;-1.03;50.70
75039;BME280;63609;49.992;14.512;2024-01-16T11:01:44;97278.50;;;-1.04;50.35
75039;BME280;63609;49.992;14.512;2024-01-16T11:04:12;97272.78;;;-0.57;50.52
75039;BME280;63609;49.992;14.512;2024-01-16T11:06:42;97283.81;;;-0.79;50.32
75039;BME280;63609;49.992;14.512;2024-01-16T11:09:15;97278.91;;;-0.71;51.32
75039;BME280;63609;49.992;14.512;2024-01-16T11:11:46;97285.50;;;-0.78;51.11
75039;BME280;63609;49.992;14.512;2024-01-16T11:14:14;97281.22;;;-0.79;50.71
75039;BME280;63609;49.992;14.512;2024-01-16T11:16:42;97284.66;;;-0.79;50.74
75039;BME280;63609;49.992;14.512;2024-01-16T11:19:09;97275.03;;;-0.65;50.71
75039;BME280;63609;49.992;14.512;2024-01-16T11:21:58;97276.19;;;-0.69;50.33
75039;BME280;63609;49.992;14.512;2024-01-16T11:24:26;97284.66;;;-0.79;50.11
75039;BME280;63609;49.992;14.512;2024-01-16T11:26:53;97275.03;;;-0.78;50.04
75039;BME280;63609;49.992;14.512;2024-01-16T11:31:56;97283.59;;;-0.89;50.40
75039;BME280;63609;49.992;14.512;2024-01-16T11:37:11;97276.56;;;-0.49;49.08
75039;BME280;63609;49.992;14.512;2024-01-16T11:39:39;97279.34;;;-0.64;49.38
75039;BME280;63609;49.992;14.512;2024-01-16T11:42:09;97279.97;;;-1.00;49.47
75039;BME280;63609;49.992;14.512;2024-01-16T11:44:41;97272.41;;;-0.78;49.97
75039;BME280;63609;49.992;14.512;2024-01-16T11:47:18;97272.41;;;-0.78;48.18
75039;BME280;63609;49.992;14.512;2024-01-16T11:49:48;97268.44;;;-0.71;48.10
75039;BME280;63609;49.992;14.512;2024-01-16T11:52:39;97274.09;;;-0.64;47.65
75039;BME280;63609;49.992;14.512;2024-01-16T11:55:29;97265.41;;;-0.65;49.48
75039;BME280;63609;49.992;14.512;2024-01-16T12:00:53;97270.00;;;-0.68;47.57
75039;BME280;63609;49.992;14.512;2024-01-16T12:03:21;97268.91;;;-0.39;48.57
75039;BME280;63609;49.992;14.512;2024-01-16T12:06:01;97268.81;;;-0.37;48.84
75039;BME280;63609;49.992;14.512;2024-01-16T12:08:30;97267.09;;;-0.64;49.83
75039;BME280;63609;49.992;14.512;2024-01-16T12:10:57;97263.41;;;-0.74;49.51
75039;BME280;63609;49.992;14.512;2024-01-16T12:13:26;97255.94;;;-0.80;49.54
75039;BME280;63609;49.992;14.512;2024-01-16T12:15:59;97255.81;;;-0.91;50.05
75039;BME280;63609;49.992;14.512;2024-01-16T12:18:27;97253.66;;;-0.72;49.53
75039;BME280;63609;49.992;14.512;2024-01-16T12:21:09;97257.88;;;-0.96;48.63
75039;BME280;63609;49.992;14.512;2024-01-16T12:23:39;97250.22;;;-0.99;47.63
75039;BME280;63609;49.992;14.512;2024-01-16T12:26:24;97248.91;;;-0.80;48.67
75039;BME280;63609;49.992;14.512;2024-01-16T12:28:52;97248.16;;;-0.55;47.53
75039;BME280;63609;49.992;14.512;2024-01-16T12:31:27;97249.03;;;-0.68;48.67
75039;BME280;63609;49.992;14.512;2024-01-16T12:34:09;97259.97;;;-0.62;49.05
75039;BME280;63609;49.992;14.512;2024-01-16T12:36:37;97250.78;;;-0.42;48.50
75039;BME280;63609;49.992;14.512;2024-01-16T12:39:05;97251.28;;;-0.50;48.28
75039;BME280;63609;49.992;14.512;2024-01-16T12:41:50;97245.34;;;-0.26;48.52
75039;BME280;63609;49.992;14.512;2024-01-16T12:44:18;97250.25;;;-0.47;48.83
75039;BME280;63609;49.992;14.512;2024-01-16T12:46:59;97237.66;;;-0.55;47.89
75039;BME280;63609;49.992;14.512;2024-01-16T12:49:29;97242.16;;;-0.57;47.82
75039;BME280;63609;49.992;14.512;2024-01-16T12:52:17;97250.25;;;0.04;46.64
75039;BME280;63609;49.992;14.512;2024-01-16T12:54:48;97255.19;;;-0.43;46.99
75039;BME280;63609;49.992;14.512;2024-01-16T12:57:19;97254.91;;;-0.65;48.43
75039;BME280;63609;49.992;14.512;2024-01-16T12:59:48;97251.94;;;0.17;48.23
75039;BME280;63609;49.992;14.512;2024-01-16T13:02:26;97257.63;;;0.11;47.53
75039;BME280;63609;49.992;14.512;2024-01-16T13:05:00;97259.38;;;0.24;48.04
75039;BME280;63609;49.992;14.512;2024-01-16T13:07:31;97263.88;;;-0.29;48.65
75039;BME280;63609;49.992;14.512;2024-01-16T13:10:10;97257.16;;;-0.33;48.07
75039;BME280;63609;49.992;14.512;2024-01-16T13:12:47;97267.03;;;-0.37;49.00
75039;BME280;63609;49.992;14.512;2024-01-16T13:15:14;97266.50;;;-0.29;48.16